createdAt,value
2017-09-02T13:18:31.542Z,2.83
2017-09-02T13:21:00.537Z,2.53
2017-09-02T13:23:29.630Z,2.70
2017-09-02T13:25:58.522Z,3.03
2017-09-02T13:28:27.399Z,2.33
2017-09-02T13:30:56.330Z,3.10
2017-09-02T13:33:25.175Z,2.70
2017-09-02T13:35:54.370Z,2.20
2017-09-02T13:38:23.206Z,2.50
2017-09-02T13:40:52.054Z,2.43
2017-09-02T13:43:20.930Z,3.00
2017-09-02T13:45:50.022Z,2.37
2017-09-02T13:48:19.119Z,2.63
2017-09-02T13:50:48.190Z,2.63
2017-09-02T13:53:15.743Z,2.73
2017-09-02T13:55:43.259Z,2.20
2017-09-02T15:19:12.959Z,2.90
2017-09-02T15:21:40.467Z,3.47
2017-09-02T15:24:08.276Z,3.57
2017-09-02T15:26:35.943Z,3.03
2017-09-02T15:29:03.440Z,3.50
2017-09-02T15:31:30.936Z,3.40
2017-09-02T15:33:58.717Z,2.57
2017-09-02T15:36:26.214Z,3.00
2017-09-02T15:38:54.022Z,2.70
2017-09-02T15:41:21.526Z,2.70
2017-09-02T15:43:49.052Z,3.17
2017-09-02T15:46:16.602Z,3.10
2017-09-02T15:48:44.139Z,2.77
2017-09-02T15:51:11.695Z,2.90
2017-09-02T15:53:39.354Z,3.17
2017-09-02T15:56:07.246Z,2.87
2017-09-02T15:58:34.754Z,2.70
2017-09-02T16:01:02.534Z,2.80
2017-09-02T16:03:30.196Z,2.70
2017-09-02T16:05:57.697Z,2.50
2017-09-02T16:08:25.198Z,2.60
2017-09-02T16:10:52.725Z,3.77
2017-09-02T16:13:20.427Z,2.67
2017-09-02T16:15:47.979Z,2.93
2017-09-02T16:18:15.735Z,2.53
2017-09-02T16:20:43.251Z,2.20
2017-09-02T16:23:10.876Z,2.60
2017-09-02T16:25:38.399Z,2.27
2017-09-02T16:28:05.987Z,2.60
2017-09-02T16:30:33.612Z,2.73
2017-09-02T16:33:01.103Z,2.90
2017-09-02T16:35:28.630Z,2.37
2017-09-02T16:37:56.189Z,3.27
2017-09-02T16:40:23.683Z,2.47
2017-09-02T16:42:51.174Z,2.67
2017-09-02T16:45:18.675Z,2.33
2017-09-02T16:47:46.236Z,2.50
2017-09-02T16:50:13.746Z,2.33
2017-09-02T16:52:42.027Z,2.50
2017-09-02T16:55:09.606Z,2.80
2017-09-02T16:57:37.124Z,2.27
2017-09-02T17:00:05.396Z,2.60
2017-09-02T17:02:32.939Z,2.53
2017-09-02T17:05:00.435Z,2.63
2017-09-02T17:07:27.928Z,2.60
2017-09-02T17:09:55.426Z,2.73
2017-09-02T17:12:22.946Z,3.13
2017-09-02T17:14:50.442Z,3.20
2017-09-02T17:17:17.936Z,3.40
2017-09-02T17:19:45.431Z,2.50
2017-09-02T17:22:12.931Z,2.73
2017-09-02T17:24:40.585Z,3.40
2017-09-02T17:27:08.083Z,3.90
2017-09-02T17:29:35.600Z,3.50
2017-09-02T17:32:03.102Z,4.27
2017-09-02T17:39:50.621Z,4.30
2017-09-02T17:42:18.123Z,4.10
2017-09-02T17:44:46.526Z,4.73
2017-09-02T17:47:14.184Z,4.10
2017-09-02T17:49:41.678Z,4.47
2017-09-02T17:52:09.174Z,4.40
2017-09-02T17:54:36.754Z,4.10
2017-09-02T17:57:04.278Z,4.80
2017-09-02T17:59:31.875Z,3.83
2017-09-02T18:01:59.399Z,4.20
2017-09-02T18:04:27.679Z,4.67
2017-09-02T18:06:56.070Z,4.63
2017-09-02T18:09:23.723Z,5.27
2017-09-02T18:11:51.254Z,4.90
2017-09-02T18:14:18.750Z,4.63
2017-09-02T18:16:46.342Z,4.87
2017-09-02T18:19:13.852Z,4.63
2017-09-02T18:21:41.343Z,3.80
2017-09-02T18:24:08.843Z,4.40
2017-09-02T18:26:36.343Z,4.60
2017-09-02T18:29:03.967Z,4.73
2017-09-02T18:31:31.477Z,4.30
2017-09-02T18:33:59.007Z,4.00
2017-09-02T18:36:26.743Z,4.07
2017-09-02T18:38:54.437Z,4.20
2017-09-02T18:41:21.935Z,4.13
2017-09-02T18:43:49.572Z,4.73
2017-09-02T18:46:17.183Z,5.10
2017-09-02T18:48:44.715Z,4.10
2017-09-02T18:51:12.207Z,4.40
2017-09-02T18:53:39.706Z,4.30
2017-09-02T18:56:07.216Z,4.67
2017-09-02T18:58:34.706Z,4.53
2017-09-02T19:01:02.207Z,4.83
2017-09-02T19:03:29.698Z,4.43
2017-09-02T19:05:57.300Z,5.10
2017-09-02T19:08:24.887Z,4.63
2017-09-02T19:10:52.537Z,4.33
2017-09-02T19:13:20.183Z,4.73
2017-09-02T19:15:47.702Z,5.00
2017-09-02T19:18:15.238Z,4.97
2017-09-02T19:20:42.798Z,4.67
2017-09-02T19:23:10.300Z,4.93
2017-09-02T19:25:37.823Z,4.50
2017-09-02T19:28:05.320Z,4.50
2017-09-02T19:30:32.827Z,4.30
2017-09-02T19:33:00.434Z,4.80
2017-09-02T19:35:27.942Z,5.10
2017-09-02T19:37:55.559Z,4.27
2017-09-02T19:40:23.058Z,4.67
2017-09-02T19:42:50.676Z,4.70
2017-09-02T19:45:18.318Z,5.13
2017-09-02T19:47:45.840Z,4.60
2017-09-02T19:50:13.451Z,4.77
2017-09-02T19:52:41.095Z,4.37
2017-09-02T19:55:08.755Z,5.30
2017-09-02T19:57:36.450Z,4.20
2017-09-02T20:00:03.943Z,4.57
2017-09-02T20:02:31.731Z,4.20
2017-09-02T20:04:59.431Z,4.90
2017-09-02T20:07:27.038Z,5.07
2017-09-02T20:09:54.538Z,4.80
2017-09-02T20:12:22.042Z,4.43
2017-09-02T20:14:49.539Z,4.47
2017-09-02T20:17:17.171Z,4.97
2017-09-02T20:19:44.827Z,4.30
2017-09-02T20:22:12.330Z,4.73
2017-09-02T20:24:39.850Z,4.20
2017-09-02T20:27:07.398Z,4.87
2017-09-02T20:29:34.927Z,6.40
2017-09-02T20:32:02.814Z,4.43
2017-09-02T20:34:30.351Z,3.90
2017-09-02T20:36:57.862Z,5.03
2017-09-02T20:39:25.474Z,4.50
2017-09-02T20:41:52.971Z,4.60
2017-09-02T20:44:20.591Z,4.67
2017-09-02T20:46:48.262Z,4.70
2017-09-02T20:49:15.754Z,5.60
2017-09-02T20:51:43.376Z,4.53
2017-09-02T20:54:11.031Z,4.40
2017-09-02T20:56:38.563Z,5.30
2017-09-02T20:59:06.160Z,4.70
2017-09-02T21:01:33.690Z,4.83
2017-09-02T21:04:01.180Z,4.10
2017-09-02T21:06:28.786Z,5.10
2017-09-02T21:08:56.359Z,4.13
2017-09-02T21:11:23.895Z,5.50
2017-09-02T21:13:51.387Z,4.07
2017-09-02T21:16:19.144Z,4.30
2017-09-02T21:18:46.645Z,4.20
2017-09-02T21:21:15.067Z,4.60
2017-09-02T21:23:42.723Z,5.53
2017-09-02T21:26:10.383Z,4.10
2017-09-02T21:28:38.038Z,4.03
2017-09-02T21:31:05.704Z,4.73
2017-09-02T21:33:33.222Z,4.07
2017-09-02T21:36:00.827Z,4.10
2017-09-02T21:38:28.467Z,5.00
2017-09-02T21:40:55.976Z,4.27
2017-09-02T21:43:23.580Z,4.20
2017-09-02T21:45:51.150Z,3.97
2017-09-02T21:48:18.643Z,4.53
2017-09-02T21:50:46.152Z,4.17
2017-09-02T21:53:13.811Z,4.40
2017-09-02T21:55:41.307Z,4.17
2017-09-02T21:58:08.932Z,4.43
2017-09-02T22:00:36.800Z,4.77
2017-09-02T22:03:04.440Z,4.10
2017-09-02T22:05:32.103Z,4.50
2017-09-02T22:07:59.619Z,3.80
2017-09-02T22:10:27.147Z,4.80
2017-09-02T22:12:54.867Z,4.20
2017-09-02T22:15:22.534Z,4.20
2017-09-02T22:17:50.188Z,3.93
2017-09-02T22:20:17.865Z,4.27
2017-09-02T22:22:45.359Z,3.90
2017-09-02T22:25:12.859Z,4.13
2017-09-02T22:27:40.415Z,4.10
2017-09-02T22:30:07.910Z,3.67
2017-09-02T22:32:35.411Z,3.80
2017-09-02T22:35:03.798Z,4.30
2017-09-02T22:37:31.318Z,3.93
2017-09-02T22:39:58.814Z,4.20
2017-09-02T22:42:26.323Z,4.10
2017-09-02T22:44:54.038Z,3.87
2017-09-02T22:47:21.696Z,4.10
2017-09-02T22:49:49.359Z,4.17
2017-09-02T22:52:16.875Z,4.83
2017-09-02T22:54:44.474Z,4.97
2017-09-02T22:57:11.999Z,4.97
2017-09-02T22:59:39.772Z,4.40
2017-09-02T23:02:07.435Z,4.00
2017-09-02T23:04:35.095Z,3.97
2017-09-02T23:07:02.764Z,4.00
2017-09-02T23:09:30.264Z,4.33
2017-09-02T23:11:57.771Z,3.87
2017-09-02T23:14:25.263Z,3.93
2017-09-02T23:16:52.764Z,4.10
2017-09-02T23:19:20.427Z,4.30
2017-09-02T23:21:47.919Z,4.30
2017-09-02T23:24:15.418Z,3.90
2017-09-02T23:26:42.995Z,4.10
2017-09-02T23:29:10.483Z,4.30
2017-09-02T23:31:38.112Z,3.80
2017-09-02T23:34:05.769Z,4.03
2017-09-02T23:36:33.448Z,3.80
2017-09-02T23:39:00.958Z,4.37
2017-09-02T23:41:28.564Z,4.23
2017-09-02T23:43:56.194Z,4.00
2017-09-02T23:46:23.858Z,3.90
2017-09-02T23:48:51.512Z,3.83
2017-09-02T23:51:19.171Z,3.90
2017-09-02T23:53:46.693Z,3.73
2017-09-02T23:56:14.187Z,4.10
2017-09-02T23:58:41.946Z,3.70
